Ayrshire, Iowa
Current Conditions -  °F | °C
As of 2:15 PM on Wednesday 26 Nov 2014 (Local Time) from KSPW Reporting Station
Overcast Overcast  
Wind Chill:   Ceiling: 7000
Heat Index: 22°   Visibility: 9mi
Dew Point: 17°   Wind: 20mph
Humidity: 82%   Direction: 350°N
Pressure: 30.18"   Gusts: NA
Location:  43.04°N, 94.83°W
Report Text: KSPW 262015Z AUTO 35017KT 9SM SCT014 OVC070 M06/M08 A3018 RMK AO2 UPB1955E04SNE1955 P0000 T10561083 TSNO
Loading
Personal Weather Stations






























Interactive Weather Map New forecast layout! Learn more

10-Day Weather Forecast

Advertisements
Track Severe Weather on mobile